• Join FlightAware (Why Join?)
  • Login
  • US Flag 
11:40PM EST


 

Airport Tracker/Info


-or-


 

Live Flight TrackerFlight Track Log ✈ XOJ552 ✈ 06-May-2013 ✈ KOAK - PHKO / KOA

Flight Track Log - Related Links

Times and Time Zones

All times are in EDT time to prevent confusion due to time zone crossing. See the XOJ552 flight status page for this flight to view local times or setup timezone preferences in your user account.

Time Position Orientation Groundspeed Altitude Reporting Facility
EDT Latitude Longitude Course Direction KTS MPH feet Rate Location/Type
06:05PM 37.7281 -122.2558 233° Southwest 169 194 1,600  Level Oakland Center
06:06PM 37.7650 -122.3203 306° West 216 249 4,700 2,760 Climbing Oakland Center
06:08PM 37.7016 -122.5170 270° West  Level Estimated
06:08PM 37.7631 -122.5064 270° West 315 362 10,200  Level Oakland Center
06:09PM 37.6958 -122.6042 229° Southwest 359 413 13,900 3,660 Climbing Oakland Center
06:10PM 37.6294 -122.7028 230° Southwest 365 420 17,700 3,540 Climbing Oakland Center
06:11PM 36.9544 -123.4982 233° Southwest  Level FlightAware Approximate
06:11PM 37.5672 -122.8053 233° Southwest 367 422 21,200  Level Oakland Center
06:12PM 37.5053 -122.9100 233° Southwest 372 428 23,500 1,800 Climbing Oakland Center
06:13PM 37.4367 -123.0242 233° Southwest 404 465 24,900 1,500 Climbing Oakland Center
06:14PM 37.3622 -123.1467 233° Southwest 436 502 26,600 1,620 Climbing Oakland Center
06:15PM 37.2850 -123.2731 233° Southwest 454 522 28,300 1,620 Climbing Oakland Center
06:16PM 37.2064 -123.4003 233° Southwest 461 531 30,000 1,800 Climbing Oakland Center
06:17PM 37.2279 -123.4460 233° Southwest  Level Estimated
06:17PM 37.1125 -123.5533 232° Southwest 462 532 32,000  Level Oakland Center
06:18PM 37.0356 -123.6800 233° Southwest 458 527 33,700 1,680 Climbing Oakland Center
06:19PM 36.9581 -123.8039 232° Southwest 452 520 35,500 1,500 Climbing Oakland Center
06:21PM 36.8638 -123.9331 228° Southwest  Level FlightAware Approximate
06:21PM 36.8128 -124.0389 228° Southwest 422 486 38,300  Level Oakland Center
06:22PM 36.7378 -124.1553 231° Southwest 427 491 38,800 480 Climbing Oakland Center
06:23PM 36.6656 -124.2756 233° Southwest 433 498 39,300 480 Climbing Oakland Center
06:24PM 36.5906 -124.3944 232° Southwest 437 503 39,800 480 Climbing Oakland Center
06:26PM 36.5411 -124.5415 229° Southwest  Level Estimated
06:26PM 36.4394 -124.6336 229° Southwest 440 506 40,800  Level Oakland Center
06:28PM 36.3914 -124.7758 235° Southwest  Level Estimated
06:28PM 36.2739 -124.8942 235° Southwest 437 503 41,900  Level Oakland Center
06:30PM 36.1986 -125.0111 231° Southwest 435 501 42,400 480 Climbing Oakland Center
06:31PM 36.1244 -125.1256 231° Southwest 431 496 42,900 240 Climbing Oakland Center
06:32PM 36.0508 -125.2411 232° Southwest 429 494 43,000  Climbing Oakland Center
06:33PM 35.9758 -125.3572 231° Southwest 432 497 43,000  Level Oakland Center
06:35PM 35.8233 -125.5994 232° Southwest 445 512 43,000  Level Oakland Center
06:36PM 35.7453 -125.7242 232° Southwest 453 521 43,000  Level Oakland Center
06:37PM 35.6650 -125.8453 231° Southwest 456 525 43,000  Level Oakland Center
06:38PM 35.6000 -125.9333 234° Southwest 455 524 43,000  Level Oakland Oceanic (ODAPS)
06:45PM 35.0047 -126.9382 234° Southwest 455 524 43,000  Level FlightAware Transoceanic
06:46PM 34.9297 -127.0628 234° Southwest 455 524 43,000  Level FlightAware Transoceanic
06:47PM 34.8545 -127.1872 234° Southwest 455 524 43,000  Level FlightAware Transoceanic
06:48PM 34.7793 -127.3113 234° Southwest 455 524 43,000  Level FlightAware Transoceanic
06:49PM 34.7039 -127.4352 233° Southwest 455 524 43,000  Level FlightAware Transoceanic
06:50PM 34.6284 -127.5589 233° Southwest 455 524 43,000  Level FlightAware Transoceanic
06:51PM 34.5528 -127.6823 233° Southwest 455 524 43,000  Level FlightAware Transoceanic
06:52PM 34.4771 -127.8055 233° Southwest 455 524 43,000  Level FlightAware Transoceanic
06:53PM 34.4012 -127.9285 233° Southwest 455 524 43,000  Level FlightAware Transoceanic
06:54PM 34.3252 -128.0513 233° Southwest 455 524 43,000  Level FlightAware Transoceanic
06:55PM 34.2491 -128.1739 233° Southwest 455 524 43,000  Level FlightAware Transoceanic
06:56PM 34.1728 -128.2962 233° Southwest 455 524 43,000  Level FlightAware Transoceanic
06:57PM 34.0965 -128.4183 233° Southwest 455 524 43,000  Level FlightAware Transoceanic
06:58PM 34.0200 -128.5402 233° Southwest 455 524 43,000  Level FlightAware Transoceanic
06:59PM 33.9434 -128.6619 233° Southwest 455 524 43,000  Level FlightAware Transoceanic
07:00PM 33.8667 -128.7833 245° Southwest 455 524 43,000  Level FlightAware Transoceanic
07:01PM 33.8156 -128.9123 244° Southwest 455 524 43,000  Level FlightAware Transoceanic
07:02PM 33.7643 -129.0410 244° Southwest 455 524 43,000  Level FlightAware Transoceanic
07:03PM 33.7129 -129.1697 244° Southwest 455 524 43,000  Level FlightAware Transoceanic
07:04PM 33.6614 -129.2982 244° Southwest 455 524 43,000  Level FlightAware Transoceanic
07:05PM 33.6098 -129.4265 244° Southwest 455 524 43,000  Level FlightAware Transoceanic
07:06PM 33.5580 -129.5546 244° Southwest 455 524 43,000  Level FlightAware Transoceanic
07:07PM 33.5061 -129.6826 244° Southwest 455 524 43,000  Level FlightAware Transoceanic
07:08PM 33.4540 -129.8105 244° Southwest 455 524 43,000  Level FlightAware Transoceanic
07:09PM 33.4019 -129.9382 244° Southwest 455 524 43,000  Level FlightAware Transoceanic
07:10PM 33.3496 -130.0658 244° Southwest 455 524 43,000  Level FlightAware Transoceanic
07:11PM 33.2971 -130.1932 244° Southwest 455 524 43,000  Level FlightAware Transoceanic
07:12PM 33.2446 -130.3204 244° Southwest 455 524 43,000  Level FlightAware Transoceanic
07:13PM 33.1919 -130.4475 244° Southwest 455 524 43,000  Level FlightAware Transoceanic
07:14PM 33.1390 -130.5744 244° Southwest 455 524 43,000  Level FlightAware Transoceanic
07:14PM 33.8667 -128.7833 245° Southwest 414 476 43,000  Level Oakland Oceanic (ODAPS)
07:15PM 33.0861 -130.7012 243° Southwest 455 524 43,000  Level FlightAware Transoceanic
07:16PM 33.0330 -130.8279 243° Southwest 455 524 43,000  Level FlightAware Transoceanic
07:17PM 32.9798 -130.9543 243° Southwest 455 524 43,000  Level FlightAware Transoceanic
07:18PM 32.9265 -131.0807 243° Southwest 455 524 43,000  Level FlightAware Transoceanic
07:19PM 32.8730 -131.2068 243° Southwest 455 524 43,000  Level FlightAware Transoceanic
07:20PM 32.9038 -131.1342 243° Southwest 414 476 43,000  Level FlightAware Transoceanic
07:21PM 32.8519 -131.2565 243° Southwest 414 476 43,000  Level FlightAware Transoceanic
07:22PM 32.7999 -131.3787 243° Southwest 414 476 43,000  Level FlightAware Transoceanic
07:23PM 32.7478 -131.5007 243° Southwest 414 476 43,000  Level FlightAware Transoceanic
07:24PM 32.6955 -131.6225 243° Southwest 414 476 43,000  Level FlightAware Transoceanic
07:25PM 32.6432 -131.7442 243° Southwest 414 476 43,000  Level FlightAware Transoceanic
07:26PM 32.5907 -131.8658 243° Southwest 414 476 43,000  Level FlightAware Transoceanic
07:27PM 32.5381 -131.9873 243° Southwest 414 476 43,000  Level FlightAware Transoceanic
07:28PM 32.4854 -132.1086 243° Southwest 414 476 43,000  Level FlightAware Transoceanic
07:29PM 32.4325 -132.2297 243° Southwest 414 476 43,000  Level FlightAware Transoceanic
07:30PM 32.3796 -132.3507 243° Southwest 414 476 43,000  Level FlightAware Transoceanic
07:31PM 32.3265 -132.4716 243° Southwest 414 476 43,000  Level FlightAware Transoceanic
07:32PM 32.2734 -132.5923 242° Southwest 414 476 43,000  Level FlightAware Transoceanic
07:33PM 32.2201 -132.7129 242° Southwest 414 476 43,000  Level FlightAware Transoceanic
07:34PM 32.1667 -132.8333 240° Southwest 414 476 43,000  Level FlightAware Transoceanic
07:35PM 32.1078 -132.9554 240° Southwest 414 476 43,000  Level FlightAware Transoceanic
07:35PM 32.1667 -132.8333 240° Southwest 428 493 43,000  Level Oakland Oceanic (ODAPS)
07:36PM 32.0488 -133.0773 240° Southwest 414 476 43,000  Level FlightAware Transoceanic
07:37PM 31.9896 -133.1990 240° Southwest 414 476 43,000  Level FlightAware Transoceanic
07:38PM 31.9304 -133.3206 240° Southwest 414 476 43,000  Level FlightAware Transoceanic
07:39PM 31.8710 -133.4420 240° Southwest 414 476 43,000  Level FlightAware Transoceanic
07:40PM 31.8116 -133.5633 240° Southwest 414 476 43,000  Level FlightAware Transoceanic
07:41PM 31.6923 -133.8053 240° Southwest 428 493 43,000  Level FlightAware Transoceanic
07:42PM 31.6325 -133.9261 240° Southwest 428 493 43,000  Level FlightAware Transoceanic
07:43PM 31.5725 -134.0468 240° Southwest 428 493 43,000  Level FlightAware Transoceanic
07:44PM 31.5125 -134.1673 240° Southwest 428 493 43,000  Level FlightAware Transoceanic
07:45PM 31.4523 -134.2876 240° Southwest 428 493 43,000  Level FlightAware Transoceanic
07:46PM 31.3921 -134.4078 240° Southwest 428 493 43,000  Level FlightAware Transoceanic
07:47PM 31.3317 -134.5278 239° Southwest 428 493 43,000  Level FlightAware Transoceanic
07:48PM 31.2712 -134.6477 239° Southwest 428 493 43,000  Level FlightAware Transoceanic
07:49PM 31.2106 -134.7674 239° Southwest 428 493 43,000  Level FlightAware Transoceanic
07:50PM 31.1499 -134.8869 239° Southwest 428 493 43,000  Level FlightAware Transoceanic
07:51PM 31.0891 -135.0063 239° Southwest 428 493 43,000  Level FlightAware Transoceanic
07:52PM 31.0281 -135.1256 239° Southwest 428 493 43,000  Level FlightAware Transoceanic
07:53PM 30.9671 -135.2447 239° Southwest 428 493 43,000  Level FlightAware Transoceanic
07:54PM 30.9059 -135.3636 239° Southwest 428 493 43,000  Level FlightAware Transoceanic
07:55PM 30.8447 -135.4825 239° Southwest 428 493 43,000  Level FlightAware Transoceanic
07:56PM 30.7833 -135.6011 239° Southwest 428 493 43,000  Level FlightAware Transoceanic
07:57PM 30.7218 -135.7196 239° Southwest 428 493 43,000  Level FlightAware Transoceanic
07:58PM 30.6603 -135.8379 239° Southwest 428 493 43,000  Level FlightAware Transoceanic
07:59PM 30.5986 -135.9561 239° Southwest 428 493 43,000  Level FlightAware Transoceanic
08:00PM 30.5368 -136.0742 239° Southwest 428 493 43,000  Level FlightAware Transoceanic
08:01PM 30.4749 -136.1921 239° Southwest 428 493 43,000  Level FlightAware Transoceanic
08:02PM 30.4129 -136.3098 239° Southwest 428 493 43,000  Level FlightAware Transoceanic
08:03PM 30.3507 -136.4274 238° Southwest 428 493 43,000  Level FlightAware Transoceanic
08:04PM 30.2885 -136.5448 238° Southwest 428 493 43,000  Level FlightAware Transoceanic
08:05PM 30.2262 -136.6621 238° Southwest 428 493 43,000  Level FlightAware Transoceanic
08:06PM 30.1638 -136.7793 238° Southwest 428 493 43,000  Level FlightAware Transoceanic
08:07PM 30.1012 -136.8963 238° Southwest 428 493 43,000  Level FlightAware Transoceanic
08:08PM 30.0386 -137.0131 238° Southwest 428 493 43,000  Level FlightAware Transoceanic
08:09PM 29.9759 -137.1298 238° Southwest 428 493 43,000  Level FlightAware Transoceanic
08:10PM 29.9130 -137.2464 238° Southwest 428 493 43,000  Level FlightAware Transoceanic
08:11PM 29.8501 -137.3628 238° Southwest 428 493 43,000  Level FlightAware Transoceanic
08:12PM 29.7870 -137.4790 238° Southwest 428 493 43,000  Level FlightAware Transoceanic
08:13PM 29.7239 -137.5952 238° Southwest 428 493 43,000  Level FlightAware Transoceanic
08:14PM 29.6606 -137.7111 238° Southwest 428 493 43,000  Level FlightAware Transoceanic
08:15PM 29.5973 -137.8270 238° Southwest 428 493 43,000  Level FlightAware Transoceanic
08:16PM 29.5338 -137.9426 238° Southwest 428 493 43,000  Level FlightAware Transoceanic
08:17PM 29.4703 -138.0582 238° Southwest 428 493 43,000  Level FlightAware Transoceanic
08:18PM 29.4066 -138.1736 238° Southwest 428 493 43,000  Level FlightAware Transoceanic
08:19PM 29.3429 -138.2888 238° Southwest 428 493 43,000  Level FlightAware Transoceanic
08:20PM 29.2790 -138.4039 238° Southwest 428 493 43,000  Level FlightAware Transoceanic
08:21PM 29.2151 -138.5188 237° Southwest 428 493 43,000  Level FlightAware Transoceanic
08:22PM 29.1510 -138.6337 237° Southwest 428 493 43,000  Level FlightAware Transoceanic
08:23PM 29.0869 -138.7483 237° Southwest 428 493 43,000  Level FlightAware Transoceanic
08:24PM 29.0226 -138.8628 237° Southwest 428 493 43,000  Level FlightAware Transoceanic
08:25PM 28.9583 -138.9772 237° Southwest 428 493 43,000  Level FlightAware Transoceanic
08:26PM 28.8939 -139.0915 237° Southwest 428 493 43,000  Level FlightAware Transoceanic
08:27PM 28.8293 -139.2056 237° Southwest 428 493 43,000  Level FlightAware Transoceanic
08:28PM 28.7647 -139.3195 237° Southwest 428 493 43,000  Level FlightAware Transoceanic
08:29PM 28.7000 -139.4333 247° West 428 493 43,000  Level FlightAware Transoceanic
08:30PM 28.6539 -139.5587 247° West 428 493 43,000  Level FlightAware Transoceanic
08:31PM 28.6076 -139.6840 247° West 428 493 43,000  Level FlightAware Transoceanic
08:31PM 28.7000 -139.4333 247° West 430 495 43,000  Level Oakland Oceanic (ODAPS)
08:32PM 28.5613 -139.8091 247° West 428 493 43,000  Level FlightAware Transoceanic
08:33PM 28.5148 -139.9342 247° West 428 493 43,000  Level FlightAware Transoceanic
08:34PM 28.4682 -140.0591 247° West 428 493 43,000  Level FlightAware Transoceanic
08:35PM 28.4215 -140.1839 247° West 428 493 43,000  Level FlightAware Transoceanic
08:36PM 28.3747 -140.3087 247° West 428 493 43,000  Level FlightAware Transoceanic
08:37PM 28.3277 -140.4332 247° West 428 493 43,000  Level FlightAware Transoceanic
08:38PM 28.3277 -140.4332 247° West 430 495 43,000  Level FlightAware Transoceanic
08:39PM 28.2807 -140.5577 247° West 430 495 43,000  Level FlightAware Transoceanic
08:40PM 28.2335 -140.6821 247° West 430 495 43,000  Level FlightAware Transoceanic
08:41PM 28.1863 -140.8064 247° West 430 495 43,000  Level FlightAware Transoceanic
08:42PM 28.1389 -140.9306 247° West 430 495 43,000  Level FlightAware Transoceanic
08:43PM 28.0914 -141.0546 247° West 430 495 43,000  Level FlightAware Transoceanic
08:44PM 28.0438 -141.1786 246° West 430 495 43,000  Level FlightAware Transoceanic
08:45PM 27.9961 -141.3024 246° West 430 495 43,000  Level FlightAware Transoceanic
08:46PM 27.9483 -141.4261 246° West 430 495 43,000  Level FlightAware Transoceanic
08:47PM 27.9003 -141.5497 246° West 430 495 43,000  Level FlightAware Transoceanic
08:48PM 27.8523 -141.6732 246° West 430 495 43,000  Level FlightAware Transoceanic
08:49PM 27.8041 -141.7966 246° West 430 495 43,000  Level FlightAware Transoceanic
08:50PM 27.7559 -141.9199 246° West 430 495 43,000  Level FlightAware Transoceanic
08:51PM 27.7075 -142.0431 246° West 430 495 43,000  Level FlightAware Transoceanic
08:52PM 27.6590 -142.1662 246° West 430 495 43,000  Level FlightAware Transoceanic
08:53PM 27.6104 -142.2891 246° West 430 495 43,000  Level FlightAware Transoceanic
08:54PM 27.5617 -142.4120 246° West 430 495 43,000  Level FlightAware Transoceanic
08:55PM 27.5129 -142.5347 246° West 430 495 43,000  Level FlightAware Transoceanic
08:56PM 27.4640 -142.6573 246° West 430 495 43,000  Level FlightAware Transoceanic
08:57PM 27.4149 -142.7799 246° West 430 495 43,000  Level FlightAware Transoceanic
08:58PM 27.3658 -142.9023 246° West 430 495 43,000  Level FlightAware Transoceanic
08:59PM 27.3166 -143.0246 246° West 430 495 43,000  Level FlightAware Transoceanic
09:00PM 27.2672 -143.1468 246° West 430 495 43,000  Level FlightAware Transoceanic
09:01PM 27.2178 -143.2689 245° Southwest 430 495 43,000  Level FlightAware Transoceanic
09:02PM 27.1682 -143.3908 245° Southwest 430 495 43,000  Level FlightAware Transoceanic
09:03PM 27.1186 -143.5127 245° Southwest 430 495 43,000  Level FlightAware Transoceanic
09:04PM 27.0688 -143.6345 245° Southwest 430 495 43,000  Level FlightAware Transoceanic
09:05PM 27.0189 -143.7561 245° Southwest 430 495 43,000  Level FlightAware Transoceanic
09:06PM 26.9690 -143.8777 245° Southwest 430 495 43,000  Level FlightAware Transoceanic
09:07PM 26.9189 -143.9991 245° Southwest 430 495 43,000  Level FlightAware Transoceanic
09:08PM 26.8687 -144.1205 245° Southwest 430 495 43,000  Level FlightAware Transoceanic
09:09PM 26.8184 -144.2417 245° Southwest 430 495 43,000  Level FlightAware Transoceanic
09:10PM 26.7680 -144.3628 245° Southwest 430 495 43,000  Level FlightAware Transoceanic
09:11PM 26.7175 -144.4838 245° Southwest 430 495 43,000  Level FlightAware Transoceanic
09:12PM 26.6669 -144.6047 245° Southwest 430 495 43,000  Level FlightAware Transoceanic
09:13PM 26.6162 -144.7255 245° Southwest 430 495 43,000  Level FlightAware Transoceanic
09:14PM 26.5654 -144.8462 245° Southwest 430 495 43,000  Level FlightAware Transoceanic
09:15PM 26.5145 -144.9668 245° Southwest 430 495 43,000  Level FlightAware Transoceanic
09:16PM 26.4635 -145.0872 245° Southwest 430 495 43,000  Level FlightAware Transoceanic
09:17PM 26.4124 -145.2076 245° Southwest 430 495 43,000  Level FlightAware Transoceanic
09:18PM 26.3612 -145.3278 245° Southwest 430 495 43,000  Level FlightAware Transoceanic
09:19PM 26.3099 -145.4480 244° Southwest 430 495 43,000  Level FlightAware Transoceanic
09:20PM 26.2585 -145.5680 244° Southwest 430 495 43,000  Level FlightAware Transoceanic
09:21PM 26.2070 -145.6880 244° Southwest 430 495 43,000  Level FlightAware Transoceanic
09:22PM 26.1554 -145.8078 244° Southwest 430 495 43,000  Level FlightAware Transoceanic
09:23PM 26.1037 -145.9275 244° Southwest 430 495 43,000  Level FlightAware Transoceanic
09:24PM 26.0519 -146.0471 244° Southwest 430 495 43,000  Level FlightAware Transoceanic
09:25PM 26.0000 -146.1667 244° Southwest 430 495 43,000  Level FlightAware Transoceanic
09:26PM 25.9463 -146.2906 244° Southwest 430 495 43,000  Level FlightAware Transoceanic
09:26PM 26.0000 -146.1667 244° Southwest 436 502 43,000  Level Oakland Oceanic (ODAPS)
09:27PM 25.8925 -146.4144 244° Southwest 430 495 43,000  Level FlightAware Transoceanic
09:28PM 25.8386 -146.5381 244° Southwest 430 495 43,000  Level FlightAware Transoceanic
09:29PM 25.7846 -146.6617 244° Southwest 430 495 43,000  Level FlightAware Transoceanic
09:30PM 25.7304 -146.7852 244° Southwest 430 495 43,000  Level FlightAware Transoceanic
09:31PM 25.6762 -146.9086 244° Southwest 430 495 43,000  Level FlightAware Transoceanic
09:32PM 25.6219 -147.0318 244° Southwest 430 495 43,000  Level FlightAware Transoceanic
09:33PM 25.5220 -147.2575 244° Southwest 436 502 43,000  Level FlightAware Transoceanic
09:34PM 25.4684 -147.3782 244° Southwest 436 502 43,000  Level FlightAware Transoceanic
09:35PM 25.4147 -147.4987 244° Southwest 436 502 43,000  Level FlightAware Transoceanic
09:36PM 25.3609 -147.6192 244° Southwest 436 502 43,000  Level FlightAware Transoceanic
09:37PM 25.3070 -147.7395 244° Southwest 436 502 43,000  Level FlightAware Transoceanic
09:38PM 25.2530 -147.8598 244° Southwest 436 502 43,000  Level FlightAware Transoceanic
09:39PM 25.1989 -147.9799 244° Southwest 436 502 43,000  Level FlightAware Transoceanic
09:40PM 25.1447 -148.0999 243° Southwest 436 502 43,000  Level FlightAware Transoceanic
09:41PM 25.0904 -148.2198 243° Southwest 436 502 43,000  Level FlightAware Transoceanic
09:42PM 25.0360 -148.3396 243° Southwest 436 502 43,000  Level FlightAware Transoceanic
09:43PM 24.9816 -148.4593 243° Southwest 436 502 43,000  Level FlightAware Transoceanic
09:44PM 24.9270 -148.5789 243° Southwest 436 502 43,000  Level FlightAware Transoceanic
09:45PM 24.8723 -148.6984 243° Southwest 436 502 43,000  Level FlightAware Transoceanic
09:46PM 24.8175 -148.8178 243° Southwest 436 502 43,000  Level FlightAware Transoceanic
09:47PM 24.7627 -148.9371 243° Southwest 436 502 43,000  Level FlightAware Transoceanic
09:48PM 24.7077 -149.0562 243° Southwest 436 502 43,000  Level FlightAware Transoceanic
09:49PM 24.6527 -149.1753 243° Southwest 436 502 43,000  Level FlightAware Transoceanic
09:50PM 24.5975 -149.2943 243° Southwest 436 502 43,000  Level FlightAware Transoceanic
09:51PM 24.5423 -149.4131 243° Southwest 436 502 43,000  Level FlightAware Transoceanic
09:52PM 24.4869 -149.5319 243° Southwest 436 502 43,000  Level FlightAware Transoceanic
09:53PM 24.4315 -149.6505 243° Southwest 436 502 43,000  Level FlightAware Transoceanic
09:54PM 24.3760 -149.7691 243° Southwest 436 502 43,000  Level FlightAware Transoceanic
09:55PM 24.3204 -149.8875 243° Southwest 436 502 43,000  Level FlightAware Transoceanic
09:56PM 24.2647 -150.0058 243° Southwest 436 502 43,000  Level FlightAware Transoceanic
09:57PM 24.2089 -150.1241 243° Southwest 436 502 43,000  Level FlightAware Transoceanic
09:58PM 24.1530 -150.2422 243° Southwest 436 502 43,000  Level FlightAware Transoceanic
09:59PM 24.0970 -150.3602 243° Southwest 436 502 43,000  Level FlightAware Transoceanic
10:00PM 24.0410 -150.4782 242° Southwest 436 502 43,000  Level FlightAware Transoceanic
10:01PM 23.9848 -150.5960 242° Southwest 436 502 43,000  Level FlightAware Transoceanic
10:02PM 23.9286 -150.7137 242° Southwest 436 502 43,000  Level FlightAware Transoceanic
10:03PM 23.8722 -150.8313 242° Southwest 436 502 43,000  Level FlightAware Transoceanic
10:04PM 23.8158 -150.9488 242° Southwest 436 502 43,000  Level FlightAware Transoceanic
10:05PM 23.7593 -151.0662 242° Southwest 436 502 43,000  Level FlightAware Transoceanic
10:06PM 23.7027 -151.1835 242° Southwest 436 502 43,000  Level FlightAware Transoceanic
10:07PM 23.6460 -151.3007 242° Southwest 436 502 43,000  Level FlightAware Transoceanic
10:08PM 23.5892 -151.4178 242° Southwest 436 502 43,000  Level FlightAware Transoceanic
10:09PM 23.5324 -151.5348 242° Southwest 436 502 43,000  Level FlightAware Transoceanic
10:10PM 23.4754 -151.6517 242° Southwest 436 502 43,000  Level FlightAware Transoceanic
10:11PM 23.4184 -151.7685 242° Southwest 436 502 43,000  Level FlightAware Transoceanic
10:12PM 23.3612 -151.8852 242° Southwest 436 502 43,000  Level FlightAware Transoceanic
10:13PM 23.3040 -152.0018 242° Southwest 436 502 43,000  Level FlightAware Transoceanic
10:14PM 23.2467 -152.1183 242° Southwest 436 502 43,000  Level FlightAware Transoceanic
10:15PM 23.1893 -152.2347 242° Southwest 436 502 43,000  Level FlightAware Transoceanic
10:16PM 23.1319 -152.3510 242° Southwest 436 502 43,000  Level FlightAware Transoceanic
10:17PM 23.0743 -152.4672 242° Southwest 436 502 43,000  Level FlightAware Transoceanic
10:18PM 23.0167 -152.5833 242° Southwest 436 502 43,000  Level FlightAware Transoceanic
10:18PM 22.8500 -152.9000 242° Southwest 450 518 43,000  Level Honolulu Center
10:19PM 22.9580 -152.7020 242° Southwest 436 502 43,000  Level FlightAware Transoceanic
10:19PM 22.8000 -153.0167 245° Southwest 450 518 43,000  Level Honolulu Center
10:20PM 22.8993 -152.8206 242° Southwest 436 502 43,000  Level FlightAware Transoceanic
10:20PM 22.7333 -153.1333 238° Southwest 450 518 43,000  Level Honolulu Center
10:21PM 22.8404 -152.9391 242° Southwest 436 502 43,000  Level FlightAware Transoceanic
10:21PM 22.6500 -153.2167 223° Southwest 460 529 43,000  Level Honolulu Center
10:22PM 22.7815 -153.0575 242° Southwest 436 502 43,000  Level FlightAware Transoceanic
10:22PM 22.5333 -153.3333 223° Southwest 480 552 43,000  Level Honolulu Center
10:23PM 22.7225 -153.1758 242° Southwest 436 502 43,000  Level FlightAware Transoceanic
10:23PM 22.4500 -153.4500 232° Southwest 480 552 43,000  Level Honolulu Center
10:24PM 22.6634 -153.2939 242° Southwest 436 502 43,000  Level FlightAware Transoceanic
10:24PM 22.3500 -153.5500 223° Southwest 480 552 43,000  Level Honolulu Center
10:25PM 22.2667 -153.6500 228° Southwest 480 552 43,000  Level Honolulu Center
10:26PM 22.1667 -153.7500 223° Southwest 480 552 43,000  Level Honolulu Center
10:28PM 21.9833 -153.9500 225° Southwest 470 541 43,000  Level Honolulu Center
10:29PM 21.8833 -154.0500 223° Southwest 480 552 43,000  Level Honolulu Center
10:30PM 21.7833 -154.1500 223° Southwest 480 552 43,000  Level Honolulu Center
10:31PM 21.6833 -154.2500 223° Southwest 470 541 43,000  Level Honolulu Center
10:32PM 21.6000 -154.3667 232° Southwest 480 552 43,000 -900 Level Honolulu Center
10:33PM 21.5000 -154.4667 223° Southwest 480 552 41,200 -2,280 Descending Honolulu Center
10:34PM 21.4000 -154.5667 223° Southwest 480 552 38,500 -2,640 Descending Honolulu Center
10:35PM 21.3167 -154.6667 228° Southwest 480 552 36,000 -2,520 Descending Honolulu Center
10:36PM 21.2167 -154.7667 223° Southwest 460 529 33,500 -2,520 Descending Honolulu Center
10:37PM 21.1167 -154.8500 218° Southwest 470 541 31,000 -2,520 Descending Honolulu Center
10:38PM 21.0333 -154.9500 228° Southwest 460 529 28,500 -2,520 Descending Honolulu Center
10:39PM 20.9500 -155.0500 228° Southwest 450 518 26,000 -2,400 Descending Honolulu Center
10:40PM 20.8500 -155.1500 223° Southwest 440 506 23,700 -2,340 Descending Honolulu Center
10:41PM 20.7667 -155.2333 223° Southwest 440 506 21,400 -2,220 Descending Honolulu Center
10:42PM 20.6833 -155.3167 223° Southwest 430 495 19,300 -2,100 Descending Honolulu Center
10:43PM 20.6000 -155.4000 223° Southwest 400 460 17,200 -2,100 Descending Honolulu Center
10:44PM 20.5333 -155.4833 230° Southwest 390 449 15,100 -1,860 Descending Honolulu Center
10:45PM 20.4500 -155.5667 223° Southwest 400 460 13,500 -1,620 Descending Honolulu Center
10:46PM 20.3667 -155.6500 223° Southwest 370 426 11,900 -1,620 Descending Honolulu Center
10:47PM 20.3000 -155.7167 223° Southwest 360 414 10,300 -1,440 Descending Honolulu Center
10:48PM 20.2333 -155.7833 223° Southwest 320 368 9,000 -1,320 Descending Honolulu Center
10:49PM 20.1833 -155.8500 231° Southwest 290 334 7,700 -1,260 Descending Honolulu Center
10:50PM 20.1167 -155.9000 215° Southwest 300 345 6,500 -1,200 Descending Honolulu Center
10:51PM 20.0500 -155.9667 223° Southwest 280 322 5,300 -1,200 Descending Honolulu Center
10:52PM 20.0000 -156.0167 223° Southwest 260 299 4,200 -1,140 Descending Honolulu Center
10:53PM 19.9333 -156.0167 180° South 240 276 3,100 -1,200 Descending Honolulu Center
10:54PM 19.8667 -156.0333 193° South 230 265 1,900 -840 Descending Honolulu Center
10:55PM 19.8167 -156.0333 180° South 170 196 1,500 -600 Descending Honolulu Center
10:56PM 19.7667 -156.0333 180° South 110 127 700 -840 Descending Honolulu Center
10:58PM 19.7333 -156.0333 North  Level FlightAware Approximate
11:05PM 19.7388 -156.0456 North  Level Estimated
11:06PM 19.7388 -156.0456 North  Level Estimated
11:07PM 19.7388 -156.0456 North  Level Estimated
11:08PM 19.7388 -156.0456 North  Level Estimated
11:09PM 19.7388 -156.0456 North  Level Estimated
11:10PM 19.7388 -156.0456 North  Level Estimated
11:11PM 19.7388 -156.0456 North  Level Estimated
11:12PM 19.7388 -156.0456 North  Level Estimated
11:13PM 19.7388 -156.0456 North  Level Estimated
11:14PM 19.7388 -156.0456 North  Level Estimated
11:15PM 19.7388 -156.0456 North  Level Estimated